createdAt,value
2022-11-28T00:00:46.136Z,4.90
2022-11-28T00:03:16.394Z,4.90
2022-11-28T00:05:47.164Z,4.90
2022-11-28T00:08:17.505Z,4.90
2022-11-28T00:10:47.815Z,4.90
2022-11-28T00:13:17.883Z,4.90
2022-11-28T00:15:58.089Z,4.90
2022-11-28T00:18:28.335Z,4.80
2022-11-28T00:21:03.029Z,4.80
2022-11-28T00:23:33.864Z,4.80
2022-11-28T00:26:05.660Z,4.80
2022-11-28T00:28:35.807Z,4.80
2022-11-28T00:31:08.015Z,4.70
2022-11-28T00:33:38.164Z,4.80
2022-11-28T00:36:09.306Z,4.80
2022-11-28T00:38:41.300Z,4.80
2022-11-28T00:41:14.539Z,4.80
2022-11-28T00:43:45.818Z,4.80
2022-11-28T00:46:18.561Z,4.80
2022-11-28T19:53:28.225Z,1.80
2022-11-28T19:55:59.387Z,1.60
2022-11-28T19:58:29.959Z,1.50
2022-11-28T20:01:07.570Z,1.40
2022-11-28T20:03:41.317Z,1.40
2022-11-28T20:06:12.428Z,1.40
2022-11-28T20:08:44.568Z,1.40
2022-11-28T20:11:16.514Z,1.40
2022-11-28T20:13:47.094Z,1.50
2022-11-28T20:16:20.014Z,1.50
2022-11-28T20:18:50.098Z,1.40
2022-11-28T20:21:21.656Z,1.40
2022-11-28T20:23:54.681Z,1.40
2022-11-28T20:26:27.555Z,1.40
2022-11-28T20:28:58.218Z,1.40
2022-11-28T20:31:31.310Z,1.40
2022-11-28T20:34:02.338Z,1.40
2022-11-28T20:36:33.576Z,1.30
2022-11-28T20:39:06.875Z,1.30
2022-11-28T20:41:36.970Z,1.40
2022-11-28T20:44:07.657Z,1.40
2022-11-28T20:46:37.777Z,1.40
2022-11-28T20:49:09.470Z,1.30
2022-11-28T20:51:39.598Z,1.30
2022-11-28T20:54:13.689Z,1.20
2022-11-28T20:57:19.592Z,1.10
2022-11-28T20:59:35.141Z,1.00
2022-11-28T21:02:05.390Z,1.00
2022-11-28T21:04:35.494Z,0.90
2022-11-28T21:07:05.514Z,0.90
2022-11-28T21:09:37.258Z,0.90
2022-11-28T21:12:07.737Z,0.80
2022-11-28T21:14:37.830Z,0.80
2022-11-28T21:17:07.922Z,0.80
2022-11-28T21:19:37.968Z,0.80
2022-11-28T21:22:08.463Z,0.70
2022-11-28T21:24:40.146Z,0.70
2022-11-28T21:27:10.152Z,0.70
2022-11-28T21:29:40.205Z,0.70
2022-11-28T21:32:13.702Z,0.60
2022-11-28T21:34:44.106Z,0.50
2022-11-28T21:37:14.144Z,0.60
2022-11-28T21:39:46.166Z,0.50
2022-11-28T21:42:20.571Z,0.50
2022-11-28T21:44:50.979Z,0.50
2022-11-28T21:47:21.098Z,0.50
2022-11-28T21:49:51.133Z,0.50
2022-11-28T21:52:24.685Z,0.50
2022-11-28T21:54:56.482Z,0.50
2022-11-28T21:57:26.701Z,0.50
2022-11-28T21:59:56.846Z,0.40
2022-11-28T22:02:30.789Z,0.40
2022-11-28T22:05:01.207Z,0.40
2022-11-28T22:07:31.305Z,0.40
2022-11-28T22:10:03.608Z,0.40
2022-11-28T22:12:33.650Z,0.40
2022-11-28T22:15:03.944Z,0.50
2022-11-28T22:17:35.658Z,0.50
2022-11-28T22:20:06.785Z,0.50
2022-11-28T22:22:36.838Z,0.50
2022-11-28T22:25:09.557Z,0.50
2022-11-28T22:27:40.158Z,0.60
2022-11-28T22:30:11.543Z,0.50
2022-11-28T22:32:41.619Z,0.50
2022-11-28T22:35:12.244Z,0.50
2022-11-28T22:37:42.246Z,0.50
2022-11-28T22:40:15.278Z,0.50
2022-11-28T22:42:45.337Z,0.50
2022-11-28T22:45:15.536Z,0.50
2022-11-28T22:47:45.566Z,0.50
2022-11-28T22:50:15.703Z,0.50
2022-11-28T22:52:46.448Z,0.50
2022-11-28T22:55:18.297Z,0.40
2022-11-28T22:57:48.474Z,0.40
2022-11-28T23:00:19.126Z,0.40
2022-11-28T23:02:49.260Z,0.40
2022-11-28T23:05:19.747Z,0.30
2022-11-28T23:07:50.681Z,0.30
2022-11-28T23:10:22.517Z,0.30
2022-11-28T23:12:52.559Z,0.30
2022-11-28T23:15:22.857Z,0.20
2022-11-28T23:17:53.183Z,0.20
2022-11-28T23:20:23.489Z,0.30
2022-11-28T23:22:53.502Z,0.20
2022-11-28T23:25:25.189Z,0.20
2022-11-28T23:27:55.245Z,0.20
2022-11-28T23:30:26.024Z,0.20
2022-11-28T23:32:56.089Z,0.20
2022-11-28T23:35:26.309Z,0.20
2022-11-28T23:37:56.337Z,0.20
2022-11-28T23:40:29.361Z,0.10
2022-11-28T23:42:59.559Z,0.10
2022-11-28T23:45:29.693Z,0.10
2022-11-28T23:47:59.808Z,0.10
2022-11-28T23:50:29.930Z,0.00
2022-11-28T23:53:00.116Z,0.00
2022-11-28T23:55:32.167Z,0.00
2022-11-28T23:58:02.212Z,0.00
